M\t Procida — IBJT — position and weather

sailwx.info

Track history (hours):
 
Tides and Currents Weather Stations Pressure Air Temp Water Temp Dewpoint Dewpoint Depression Visibility Wind Speed Wind Dir Waves Ship Positions

M\t Procida

Last reported at 2017-Sep-26 01:59 UTC. Time now 2017-Sep-26 02:17 UTC.
Position N 56°08' W 003°02'.

Length 149 m; draft 9.4 m.

Type: Tanker. MMSI: 247258400.

Date/timePositionNaut miles runAvg speedWind from/ knotsBaromVisibWave heightAir tempDewpointWater temp
2017-Sep-26 01:59N 56°08' W 003°02'0 0.0
2017-Sep-26 01:29N 56°08' W 003°02'0 0.0
2017-Sep-26 00:59N 56°08' W 003°02'0 0.0
2017-Sep-26 00:29N 56°08' W 003°02'0 0.0
2017-Sep-25 23:59N 56°08' W 003°02'0 0.0
2017-Sep-25 23:29N 56°08' W 003°02'0 0.0
2017-Sep-25 22:59N 56°08' W 003°02'0 0.0
2017-Sep-25 22:29N 56°08' W 003°02'0 0.1
2017-Sep-25 21:59N 56°08' W 003°02'0 0.2
2017-Sep-25 21:29N 56°08' W 003°02'0 0.1
2017-Sep-25 20:59N 56°08' W 003°02'0 0.0
2017-Sep-25 20:29N 56°08' W 003°02'0 0.0
2017-Sep-25 19:59N 56°08' W 003°02'0 0.2
2017-Sep-25 19:29N 56°08' W 003°02'0 0.0
2017-Sep-25 18:59N 56°08' W 003°02'0 0.0
2017-Sep-25 18:29N 56°08' W 003°02'0 0.0
2017-Sep-25 17:59N 56°08' W 003°02'0 0.0
2017-Sep-25 17:29N 56°08' W 003°02'0 0.0
2017-Sep-25 16:59N 56°08' W 003°02'0 0.0
2017-Sep-25 16:29N 56°08' W 003°02'0 0.0
2017-Sep-25 15:59N 56°08' W 003°02'0 0.0
2017-Sep-25 15:29N 56°08' W 003°02'0 0.0
2017-Sep-25 14:59N 56°08' W 003°02'0 0.0
2017-Sep-25 14:29N 56°08' W 003°02'0 0.0
2017-Sep-25 13:59N 56°08' W 003°02'0 0.0
2017-Sep-25 13:29N 56°08' W 003°02'0 0.0
2017-Sep-25 12:59N 56°08' W 003°02'0 0.0
2017-Sep-25 12:29N 56°08' W 003°02'0 0.0
2017-Sep-25 11:59N 56°08' W 003°02'0 0.0
2017-Sep-25 11:29N 56°08' W 003°02'0 0.0
2017-Sep-25 10:59N 56°08' W 003°02'0 0.0
2017-Sep-25 10:29N 56°08' W 003°02'0 0.1
2017-Sep-25 09:59N 56°08' W 003°02'0 0.2
2017-Sep-25 09:29N 56°08' W 003°02'0 0.1
2017-Sep-25 08:59N 56°08' W 003°02'0 0.0
2017-Sep-25 08:29N 56°08' W 003°02'0 0.0
2017-Sep-25 07:59N 56°08' W 003°02'0 0.1
2017-Sep-25 07:29N 56°08' W 003°02'0 0.1
2017-Sep-25 06:59N 56°08' W 003°02'0 0.1
2017-Sep-25 06:29N 56°08' W 003°02'0 0.0
2017-Sep-25 05:59N 56°08' W 003°02'0 0.0
2017-Sep-25 05:29N 56°08' W 003°02'0 0.1
2017-Sep-25 04:59N 56°08' W 003°02'0 0.0
2017-Sep-25 04:29N 56°08' W 003°02'0 0.0
2017-Sep-25 03:59N 56°08' W 003°02'0 0.0
2017-Sep-25 03:29N 56°08' W 003°02'0 0.0
2017-Sep-25 02:59N 56°08' W 003°02'0 0.0
2017-Sep-25 02:29N 56°08' W 003°02'0 0.0
2017-Sep-25 01:59N 56°08' W 003°02'0 0.0
2017-Sep-25 01:29N 56°08' W 003°02'0 0.0
2017-Sep-25 00:59N 56°08' W 003°02'0 0.0
2017-Sep-25 00:29N 56°08' W 003°02'0 0.0
2017-Sep-24 23:59N 56°08' W 003°02'0 0.0
2017-Sep-24 23:29N 56°08' W 003°02'0 0.0
2017-Sep-24 22:59N 56°08' W 003°02'0 0.0
2017-Sep-24 22:29N 56°08' W 003°02'0 0.0
2017-Sep-24 21:59N 56°08' W 003°02'0 0.1
2017-Sep-24 21:29N 56°08' W 003°02'0 0.3
2017-Sep-24 20:59N 56°08' W 003°02'0 0.0
2017-Sep-24 20:29N 56°08' W 003°02'0 0.0
2017-Sep-24 19:59N 56°08' W 003°02'0 0.2
2017-Sep-24 19:30N 56°08' W 003°02'1 2.8
2017-Sep-24 19:00N 56°07' W 003°03'611.4
2017-Sep-24 18:30N 56°03' W 003°10'612.3
2017-Sep-24 18:00N 56°01' W 003°21'510.6
2017-Sep-24 17:30N 56°01' W 003°30'510.5
2017-Sep-24 17:00N 56°02' W 003°39'1 1.9
2017-Sep-24 16:30N 56°02' W 003°41'0 0.7
2017-Sep-24 15:59N 56°02' W 003°41'  
2017-Sep-21 15:56N 56°02' W 003°41'1 0.8
2017-Sep-21 14:54N 56°02' W 003°40'5 4.2
2017-Sep-21 13:49N 56°02' W 003°32'4 8.9
2017-Sep-21 13:23N 56°00' W 003°26'4 9.7
2017-Sep-21 13:00N 56°01' W 003°19'713.2
2017-Sep-21 12:30N 56°03' W 003°08'2 4.6
2017-Sep-21 12:00N 56°05' W 003°07'0 0.2
2017-Sep-21 11:29N 56°05' W 003°07'0 0.2
2017-Sep-21 10:59N 56°05' W 003°07'0 0.1
2017-Sep-21 10:29N 56°05' W 003°07'0 0.1
2017-Sep-21 09:59N 56°05' W 003°07'0 0.0
2017-Sep-21 09:29N 56°06' W 003°07'0 0.0
2017-Sep-21 08:59N 56°06' W 003°07'0 0.0
2017-Sep-21 08:29N 56°06' W 003°07'0 0.0
2017-Sep-21 07:59N 56°06' W 003°07'0 0.0
2017-Sep-21 07:29N 56°06' W 003°07'0 0.0
2017-Sep-21 06:59N 56°06' W 003°07'0 0.0
2017-Sep-21 06:29N 56°06' W 003°07'0 0.0
2017-Sep-21 05:59N 56°06' W 003°07'0 0.0
2017-Sep-21 05:29N 56°06' W 003°07'0 0.0
2017-Sep-21 04:59N 56°06' W 003°07'0 0.0
2017-Sep-21 04:29N 56°06' W 003°07'0 0.0
2017-Sep-21 03:59N 56°05' W 003°07'0 0.1
2017-Sep-21 03:29N 56°06' W 003°07'0 0.0
2017-Sep-21 02:59N 56°06' W 003°07'0 0.0
2017-Sep-21 02:29N 56°06' W 003°07'0 0.2
2017-Sep-21 01:59N 56°05' W 003°07'0 0.1
2017-Sep-21 01:29N 56°05' W 003°07'0 0.0
2017-Sep-21 00:59N 56°05' W 003°07'0 0.0
2017-Sep-21 00:29N 56°06' W 003°07'0 0.0
2017-Sep-20 23:59N 56°06' W 003°07'0 0.0
2017-Sep-20 23:29N 56°06' W 003°07'0 0.1
2017-Sep-20 22:59N 56°06' W 003°07'0 0.1
2017-Sep-20 22:29N 56°05' W 003°07'0 0.1
2017-Sep-20 21:59N 56°05' W 003°07'0 0.0
2017-Sep-20 21:29N 56°06' W 003°07'0 0.0
2017-Sep-20 20:59N 56°06' W 003°07'0 0.0
2017-Sep-20 20:29N 56°06' W 003°07'0 0.0
2017-Sep-20 19:59N 56°06' W 003°07'0 0.0
2017-Sep-20 19:29N 56°06' W 003°07'0 0.1
2017-Sep-20 18:59N 56°06' W 003°07'0 0.0
2017-Sep-20 18:29N 56°06' W 003°07'0 0.0
2017-Sep-20 17:59N 56°06' W 003°07'0 0.0
2017-Sep-20 17:29N 56°06' W 003°07'0 0.2
2017-Sep-20 16:59N 56°05' W 003°07'0 0.2
2017-Sep-20 16:29N 56°05' W 003°07'0 0.1
2017-Sep-20 15:59N 56°06' W 003°07'0 0.1
2017-Sep-20 15:29N 56°06' W 003°07'0 0.0
2017-Sep-20 14:59N 56°06' W 003°07'0 0.0
2017-Sep-20 13:59N 56°06' W 003°07'0 0.1
2017-Sep-20 13:29N 56°06' W 003°07'0 0.0
2017-Sep-20 12:59N 56°06' W 003°07'0 0.0
2017-Sep-20 12:29N 56°06' W 003°07'0 0.2
2017-Sep-20 11:59N 56°05' W 003°07'0 0.1
2017-Sep-20 11:29N 56°05' W 003°07'0 0.1
2017-Sep-20 10:59N 56°05' W 003°07'0 0.0
2017-Sep-20 10:29N 56°05' W 003°07'0 0.0
2017-Sep-20 09:59N 56°05' W 003°07'0 0.0
2017-Sep-20 09:29N 56°05' W 003°07'0 0.2
2017-Sep-20 08:59N 56°05' W 003°07'0 0.1
2017-Sep-20 08:29N 56°06' W 003°07'0 0.2
2017-Sep-20 07:59N 56°05' W 003°07'0 0.0
2017-Sep-20 07:29N 56°05' W 003°07'0 0.0
2017-Sep-20 06:59N 56°06' W 003°07'0 0.0
2017-Sep-20 06:29N 56°06' W 003°07'0 0.0
2017-Sep-20 05:59N 56°06' W 003°07'0 0.0
2017-Sep-20 05:29N 56°06' W 003°07'0 0.0
2017-Sep-20 04:59N 56°06' W 003°07'0 0.0
2017-Sep-20 04:29N 56°06' W 003°07'0 0.0
2017-Sep-20 03:59N 56°05' W 003°07'0 0.0
2017-Sep-20 03:29N 56°05' W 003°07'0 0.2
2017-Sep-20 02:59N 56°05' W 003°07'0 0.2
2017-Sep-20 02:29N 56°05' W 003°07'0 0.0
2017-Sep-20 01:59N 56°05' W 003°07'0 0.0
2017-Sep-20 01:29N 56°05' W 003°07'0 0.0
2017-Sep-20 00:59N 56°05' W 003°07'0 0.0
2017-Sep-20 00:29N 56°05' W 003°07'0 0.0
2017-Sep-19 23:59N 56°05' W 003°07'0 0.0
2017-Sep-19 23:29N 56°05' W 003°07'0 0.0
2017-Sep-19 22:59N 56°05' W 003°07'0 0.2
2017-Sep-19 22:29N 56°05' W 003°07'0 0.2
2017-Sep-19 21:59N 56°05' W 003°07'0 0.0
2017-Sep-19 21:29N 56°06' W 003°07'0 0.0
2017-Sep-19 20:59N 56°06' W 003°07'0 0.0
2017-Sep-19 20:29N 56°05' W 003°07'0 0.0
2017-Sep-19 19:59N 56°05' W 003°07'0 0.0
2017-Sep-19 19:29N 56°05' W 003°07'0 0.0
2017-Sep-19 18:59N 56°05' W 003°07'0 0.0
2017-Sep-19 18:29N 56°05' W 003°07'0 0.0
2017-Sep-19 17:59N 56°05' W 003°07'0 0.0
2017-Sep-19 17:29N 56°05' W 003°07'0 0.0
2017-Sep-19 16:59N 56°05' W 003°07'0 0.0
2017-Sep-19 16:29N 56°05' W 003°07'0 0.0
2017-Sep-19 15:59N 56°06' W 003°07'0 0.0
2017-Sep-19 15:29N 56°06' W 003°07'0 0.0
2017-Sep-19 14:59N 56°06' W 003°07'0 0.0
2017-Sep-19 14:29N 56°05' W 003°07'0 0.1
2017-Sep-19 13:59N 56°05' W 003°07'0 0.0
2017-Sep-19 13:29N 56°05' W 003°07'0 0.0
2017-Sep-19 12:59N 56°05' W 003°07'0 0.1
2017-Sep-19 12:29N 56°05' W 003°07'0 0.1
2017-Sep-19 11:59N 56°05' W 003°07'0 0.2
2017-Sep-19 11:29N 56°05' W 003°07'0 0.1
2017-Sep-19 10:59N 56°05' W 003°07'0 0.1
2017-Sep-19 10:29N 56°05' W 003°07'0 0.1
2017-Sep-19 09:59N 56°05' W 003°07'0 0.1
2017-Sep-19 09:29N 56°05' W 003°07'0 0.1
2017-Sep-19 08:59N 56°05' W 003°07'0 0.0
2017-Sep-19 08:29N 56°05' W 003°07'0 0.1
2017-Sep-19 07:59N 56°05' W 003°07'0 0.0
2017-Sep-19 07:29N 56°05' W 003°07'0 0.0
2017-Sep-19 06:59N 56°05' W 003°07'0 0.0
2017-Sep-19 06:29N 56°05' W 003°07'0 0.0
2017-Sep-19 05:59N 56°05' W 003°07'0 0.0
2017-Sep-19 05:29N 56°05' W 003°07'0 0.0
2017-Sep-19 04:59N 56°05' W 003°07'0 0.0
2017-Sep-19 04:29N 56°05' W 003°07'0 0.0
2017-Sep-19 03:59N 56°05' W 003°07'0 0.1
2017-Sep-19 03:29N 56°05' W 003°07'0 0.0
2017-Sep-19 02:59N 56°05' W 003°07'0 0.0
2017-Sep-19 02:29N 56°05' W 003°07'0 0.0
2017-Sep-19 01:59N 56°05' W 003°07'0 0.1
2017-Sep-19 01:29N 56°05' W 003°07'0 0.2
2017-Sep-19 00:59N 56°05' W 003°07'0 0.1
2017-Sep-19 00:29N 56°05' W 003°07'0 0.0
2017-Sep-18 23:59N 56°05' W 003°07'0 0.0
2017-Sep-18 23:29N 56°05' W 003°07'0 0.1
2017-Sep-18 22:59N 56°05' W 003°07'0 0.0
2017-Sep-18 22:29N 56°05' W 003°07'0 0.0
2017-Sep-18 21:59N 56°05' W 003°07'0 0.0
2017-Sep-18 21:29N 56°05' W 003°07'0 0.1
2017-Sep-18 20:59N 56°05' W 003°07'0 0.1
2017-Sep-18 20:29N 56°05' W 003°07'0 0.0
2017-Sep-18 19:59N 56°05' W 003°07'0 0.0
2017-Sep-18 19:29N 56°05' W 003°07'0 0.1
2017-Sep-18 18:59N 56°05' W 003°07'0 0.1
2017-Sep-18 18:29N 56°05' W 003°07'0 0.0
2017-Sep-18 17:59N 56°05' W 003°07'0 0.0
2017-Sep-18 17:29N 56°05' W 003°07'0 0.0
2017-Sep-18 16:59N 56°05' W 003°07'0 0.0
2017-Sep-18 16:29N 56°05' W 003°07'0 0.0
2017-Sep-18 15:59N 56°05' W 003°07'0 0.0
2017-Sep-18 15:29N 56°05' W 003°07'0 0.0
2017-Sep-18 14:59N 56°05' W 003°07'0 0.0
2017-Sep-18 14:29N 56°05' W 003°07'0 0.0
2017-Sep-18 13:59N 56°05' W 003°07'0 0.2
2017-Sep-18 13:29N 56°05' W 003°07'0 0.1
2017-Sep-18 12:59N 56°05' W 003°07'0 0.0
2017-Sep-18 12:29N 56°05' W 003°07'0 0.0
2017-Sep-18 11:59N 56°05' W 003°07'0 0.0
2017-Sep-18 11:29N 56°05' W 003°07'0 0.0
2017-Sep-18 10:59N 56°05' W 003°07'0 0.0
2017-Sep-18 10:29N 56°05' W 003°07'0 0.0
2017-Sep-18 09:59N 56°05' W 003°07'0 0.1
2017-Sep-18 09:29N 56°05' W 003°07'0 0.0
2017-Sep-18 08:59N 56°05' W 003°07'0 0.0
2017-Sep-18 08:29N 56°05' W 003°07'0 0.0
2017-Sep-18 07:59N 56°05' W 003°07'0 0.0
2017-Sep-18 07:29N 56°05' W 003°07'0 0.1
2017-Sep-18 06:59N 56°05' W 003°07'0 0.1
2017-Sep-18 06:29N 56°05' W 003°07'0 0.0
2017-Sep-18 05:59N 56°05' W 003°07'0 0.0
2017-Sep-18 05:29N 56°05' W 003°07'0 0.0
2017-Sep-18 04:59N 56°05' W 003°07'0 0.0
2017-Sep-18 04:29N 56°05' W 003°07'0 0.0
2017-Sep-18 03:59N 56°05' W 003°07'0 0.0
2017-Sep-18 03:29N 56°05' W 003°07'0 0.0
2017-Sep-18 02:59N 56°05' W 003°07'0 0.1
2017-Sep-18 02:29N 56°05' W 003°07'0 0.1
2017-Sep-18 01:59N 56°05' W 003°07'0 0.2
2017-Sep-18 01:29N 56°05' W 003°07'0 0.0
2017-Sep-18 00:59N 56°05' W 003°07'0 0.0
2017-Sep-18 00:29N 56°05' W 003°07'0 0.0
2017-Sep-17 23:59N 56°05' W 003°07'0 0.0
2017-Sep-17 23:29N 56°05' W 003°07'0 0.0
2017-Sep-17 22:59N 56°05' W 003°07'0 0.0
2017-Sep-17 22:29N 56°05' W 003°07'0 0.0
2017-Sep-17 21:59N 56°05' W 003°07'0 0.0
2017-Sep-17 21:29N 56°05' W 003°07'0 0.0
2017-Sep-17 20:59N 56°05' W 003°07'0 0.0
2017-Sep-17 20:29N 56°05' W 003°07'0 0.0
2017-Sep-17 19:59N 56°05' W 003°07'0 0.0
2017-Sep-17 19:29N 56°05' W 003°07'0 0.0
2017-Sep-17 18:59N 56°05' W 003°07'0 0.0
2017-Sep-17 18:29N 56°05' W 003°07'0 0.0
2017-Sep-17 17:59N 56°05' W 003°07'0 0.0
2017-Sep-17 17:29N 56°05' W 003°07'0 0.0
2017-Sep-17 16:59N 56°05' W 003°07'0 0.1
2017-Sep-17 16:29N 56°05' W 003°07'0 0.1
2017-Sep-17 15:59N 56°05' W 003°07'0 0.0
2017-Sep-17 15:29N 56°05' W 003°07'0 0.0
2017-Sep-17 14:59N 56°05' W 003°07'0 0.0
2017-Sep-17 14:29N 56°05' W 003°07'0 0.0
2017-Sep-17 13:59N 56°05' W 003°07'0 0.0
2017-Sep-17 13:29N 56°05' W 003°07'0 0.0
2017-Sep-17 12:59N 56°05' W 003°07'0 0.1
2017-Sep-17 12:29N 56°05' W 003°07'0 0.0
2017-Sep-17 11:59N 56°05' W 003°07'0 0.0
2017-Sep-17 11:29N 56°05' W 003°07'0 0.0
2017-Sep-17 10:59N 56°05' W 003°07'0 0.0
2017-Sep-17 10:29N 56°05' W 003°07'0 0.0
2017-Sep-17 09:59N 56°05' W 003°07'0 0.0
2017-Sep-17 09:29N 56°05' W 003°07'0 0.0
2017-Sep-17 08:59N 56°05' W 003°07'0 0.0
2017-Sep-17 08:29N 56°05' W 003°07'0 0.3
2017-Sep-17 08:00N 56°05' W 003°07'4 8.3
2017-Sep-17 07:30N 56°06' W 002°60'713.6
2017-Sep-17 07:00N 56°07' W 002°47'713.1
2017-Sep-17 06:30N 56°08' W 002°36'613.0
2017-Sep-17 06:00N 56°07' W 002°24'713.0
2017-Sep-17 05:30N 56°06' W 002°13'713.1
2017-Sep-17 05:00N 56°04' W 002°02'713.1
2017-Sep-17 04:30N 56°02' W 001°50'612.8
2017-Sep-17 04:00N 55°60' W 001°39'912.7
2017-Sep-17 03:17N 55°55' W 001°25'  
Track history (hours):
 
Tides and Currents Weather Stations Pressure Air Temp Water Temp Dewpoint Dewpoint Depression Visibility Wind Speed Wind Dir Waves Ship Positions

M\t Procida

Last reported at 2017-Sep-26 01:59 UTC. Time now 2017-Sep-26 02:17 UTC.
Position N 56°08' W 003°02'.

Length 149 m; draft 9.4 m.

Type: Tanker. MMSI: 247258400.

Date/timePositionNaut miles runAvg speedWind from/ knotsBaromVisibWave heightAir tempDewpointWater temp
2017-Sep-26 01:59N 56°08' W 003°02'0 0.0
2017-Sep-26 01:29N 56°08' W 003°02'0 0.0
2017-Sep-26 00:59N 56°08' W 003°02'0 0.0
2017-Sep-26 00:29N 56°08' W 003°02'0 0.0
2017-Sep-25 23:59N 56°08' W 003°02'0 0.0
2017-Sep-25 23:29N 56°08' W 003°02'0 0.0
2017-Sep-25 22:59N 56°08' W 003°02'0 0.0
2017-Sep-25 22:29N 56°08' W 003°02'0 0.1
2017-Sep-25 21:59N 56°08' W 003°02'0 0.2
2017-Sep-25 21:29N 56°08' W 003°02'0 0.1
2017-Sep-25 20:59N 56°08' W 003°02'0 0.0
2017-Sep-25 20:29N 56°08' W 003°02'0 0.0
2017-Sep-25 19:59N 56°08' W 003°02'0 0.2
2017-Sep-25 19:29N 56°08' W 003°02'0 0.0
2017-Sep-25 18:59N 56°08' W 003°02'0 0.0
2017-Sep-25 18:29N 56°08' W 003°02'0 0.0
2017-Sep-25 17:59N 56°08' W 003°02'0 0.0
2017-Sep-25 17:29N 56°08' W 003°02'0 0.0
2017-Sep-25 16:59N 56°08' W 003°02'0 0.0
2017-Sep-25 16:29N 56°08' W 003°02'0 0.0
2017-Sep-25 15:59N 56°08' W 003°02'0 0.0
2017-Sep-25 15:29N 56°08' W 003°02'0 0.0
2017-Sep-25 14:59N 56°08' W 003°02'0 0.0
2017-Sep-25 14:29N 56°08' W 003°02'0 0.0
2017-Sep-25 13:59N 56°08' W 003°02'0 0.0
2017-Sep-25 13:29N 56°08' W 003°02'0 0.0
2017-Sep-25 12:59N 56°08' W 003°02'0 0.0
2017-Sep-25 12:29N 56°08' W 003°02'0 0.0
2017-Sep-25 11:59N 56°08' W 003°02'0 0.0
2017-Sep-25 11:29N 56°08' W 003°02'0 0.0
2017-Sep-25 10:59N 56°08' W 003°02'0 0.0
2017-Sep-25 10:29N 56°08' W 003°02'0 0.1
2017-Sep-25 09:59N 56°08' W 003°02'0 0.2
2017-Sep-25 09:29N 56°08' W 003°02'0 0.1
2017-Sep-25 08:59N 56°08' W 003°02'0 0.0
2017-Sep-25 08:29N 56°08' W 003°02'0 0.0
2017-Sep-25 07:59N 56°08' W 003°02'0 0.1
2017-Sep-25 07:29N 56°08' W 003°02'0 0.1
2017-Sep-25 06:59N 56°08' W 003°02'0 0.1
2017-Sep-25 06:29N 56°08' W 003°02'0 0.0
2017-Sep-25 05:59N 56°08' W 003°02'0 0.0
2017-Sep-25 05:29N 56°08' W 003°02'0 0.1
2017-Sep-25 04:59N 56°08' W 003°02'0 0.0
2017-Sep-25 04:29N 56°08' W 003°02'0 0.0
2017-Sep-25 03:59N 56°08' W 003°02'0 0.0
2017-Sep-25 03:29N 56°08' W 003°02'0 0.0
2017-Sep-25 02:59N 56°08' W 003°02'0 0.0
2017-Sep-25 02:29N 56°08' W 003°02'0 0.0
2017-Sep-25 01:59N 56°08' W 003°02'0 0.0
2017-Sep-25 01:29N 56°08' W 003°02'0 0.0
2017-Sep-25 00:59N 56°08' W 003°02'0 0.0
2017-Sep-25 00:29N 56°08' W 003°02'0 0.0
2017-Sep-24 23:59N 56°08' W 003°02'0 0.0
2017-Sep-24 23:29N 56°08' W 003°02'0 0.0
2017-Sep-24 22:59N 56°08' W 003°02'0 0.0
2017-Sep-24 22:29N 56°08' W 003°02'0 0.0
2017-Sep-24 21:59N 56°08' W 003°02'0 0.1
2017-Sep-24 21:29N 56°08' W 003°02'0 0.3
2017-Sep-24 20:59N 56°08' W 003°02'0 0.0
2017-Sep-24 20:29N 56°08' W 003°02'0 0.0
2017-Sep-24 19:59N 56°08' W 003°02'0 0.2
2017-Sep-24 19:30N 56°08' W 003°02'1 2.8
2017-Sep-24 19:00N 56°07' W 003°03'611.4
2017-Sep-24 18:30N 56°03' W 003°10'612.3
2017-Sep-24 18:00N 56°01' W 003°21'510.6
2017-Sep-24 17:30N 56°01' W 003°30'510.5
2017-Sep-24 17:00N 56°02' W 003°39'1 1.9
2017-Sep-24 16:30N 56°02' W 003°41'0 0.7
2017-Sep-24 15:59N 56°02' W 003°41'  
2017-Sep-21 15:56N 56°02' W 003°41'1 0.8
2017-Sep-21 14:54N 56°02' W 003°40'5 4.2
2017-Sep-21 13:49N 56°02' W 003°32'4 8.9
2017-Sep-21 13:23N 56°00' W 003°26'4 9.7
2017-Sep-21 13:00N 56°01' W 003°19'713.2
2017-Sep-21 12:30N 56°03' W 003°08'2 4.6
2017-Sep-21 12:00N 56°05' W 003°07'0 0.2
2017-Sep-21 11:29N 56°05' W 003°07'0 0.2
2017-Sep-21 10:59N 56°05' W 003°07'0 0.1
2017-Sep-21 10:29N 56°05' W 003°07'0 0.1
2017-Sep-21 09:59N 56°05' W 003°07'0 0.0
2017-Sep-21 09:29N 56°06' W 003°07'0 0.0
2017-Sep-21 08:59N 56°06' W 003°07'0 0.0
2017-Sep-21 08:29N 56°06' W 003°07'0 0.0
2017-Sep-21 07:59N 56°06' W 003°07'0 0.0
2017-Sep-21 07:29N 56°06' W 003°07'0 0.0
2017-Sep-21 06:59N 56°06' W 003°07'0 0.0
2017-Sep-21 06:29N 56°06' W 003°07'0 0.0
2017-Sep-21 05:59N 56°06' W 003°07'0 0.0
2017-Sep-21 05:29N 56°06' W 003°07'0 0.0
2017-Sep-21 04:59N 56°06' W 003°07'0 0.0
2017-Sep-21 04:29N 56°06' W 003°07'0 0.0
2017-Sep-21 03:59N 56°05' W 003°07'0 0.1
2017-Sep-21 03:29N 56°06' W 003°07'0 0.0
2017-Sep-21 02:59N 56°06' W 003°07'0 0.0
2017-Sep-21 02:29N 56°06' W 003°07'0 0.2
2017-Sep-21 01:59N 56°05' W 003°07'0 0.1
2017-Sep-21 01:29N 56°05' W 003°07'0 0.0
2017-Sep-21 00:59N 56°05' W 003°07'0 0.0
2017-Sep-21 00:29N 56°06' W 003°07'0 0.0
2017-Sep-20 23:59N 56°06' W 003°07'0 0.0
2017-Sep-20 23:29N 56°06' W 003°07'0 0.1
2017-Sep-20 22:59N 56°06' W 003°07'0 0.1
2017-Sep-20 22:29N 56°05' W 003°07'0 0.1
2017-Sep-20 21:59N 56°05' W 003°07'0 0.0
2017-Sep-20 21:29N 56°06' W 003°07'0 0.0
2017-Sep-20 20:59N 56°06' W 003°07'0 0.0
2017-Sep-20 20:29N 56°06' W 003°07'0 0.0
2017-Sep-20 19:59N 56°06' W 003°07'0 0.0
2017-Sep-20 19:29N 56°06' W 003°07'0 0.1
2017-Sep-20 18:59N 56°06' W 003°07'0 0.0
2017-Sep-20 18:29N 56°06' W 003°07'0 0.0
2017-Sep-20 17:59N 56°06' W 003°07'0 0.0
2017-Sep-20 17:29N 56°06' W 003°07'0 0.2
2017-Sep-20 16:59N 56°05' W 003°07'0 0.2
2017-Sep-20 16:29N 56°05' W 003°07'0 0.1
2017-Sep-20 15:59N 56°06' W 003°07'0 0.1
2017-Sep-20 15:29N 56°06' W 003°07'0 0.0
2017-Sep-20 14:59N 56°06' W 003°07'0 0.0
2017-Sep-20 13:59N 56°06' W 003°07'0 0.1
2017-Sep-20 13:29N 56°06' W 003°07'0 0.0
2017-Sep-20 12:59N 56°06' W 003°07'0 0.0
2017-Sep-20 12:29N 56°06' W 003°07'0 0.2
2017-Sep-20 11:59N 56°05' W 003°07'0 0.1
2017-Sep-20 11:29N 56°05' W 003°07'0 0.1
2017-Sep-20 10:59N 56°05' W 003°07'0 0.0
2017-Sep-20 10:29N 56°05' W 003°07'0 0.0
2017-Sep-20 09:59N 56°05' W 003°07'0 0.0
2017-Sep-20 09:29N 56°05' W 003°07'0 0.2
2017-Sep-20 08:59N 56°05' W 003°07'0 0.1
2017-Sep-20 08:29N 56°06' W 003°07'0 0.2
2017-Sep-20 07:59N 56°05' W 003°07'0 0.0
2017-Sep-20 07:29N 56°05' W 003°07'0 0.0
2017-Sep-20 06:59N 56°06' W 003°07'0 0.0
2017-Sep-20 06:29N 56°06' W 003°07'0 0.0
2017-Sep-20 05:59N 56°06' W 003°07'0 0.0
2017-Sep-20 05:29N 56°06' W 003°07'0 0.0
2017-Sep-20 04:59N 56°06' W 003°07'0 0.0
2017-Sep-20 04:29N 56°06' W 003°07'0 0.0
2017-Sep-20 03:59N 56°05' W 003°07'0 0.0
2017-Sep-20 03:29N 56°05' W 003°07'0 0.2
2017-Sep-20 02:59N 56°05' W 003°07'0 0.2
2017-Sep-20 02:29N 56°05' W 003°07'0 0.0
2017-Sep-20 01:59N 56°05' W 003°07'0 0.0
2017-Sep-20 01:29N 56°05' W 003°07'0 0.0
2017-Sep-20 00:59N 56°05' W 003°07'0 0.0
2017-Sep-20 00:29N 56°05' W 003°07'0 0.0
2017-Sep-19 23:59N 56°05' W 003°07'0 0.0
2017-Sep-19 23:29N 56°05' W 003°07'0 0.0
2017-Sep-19 22:59N 56°05' W 003°07'0 0.2
2017-Sep-19 22:29N 56°05' W 003°07'0 0.2
2017-Sep-19 21:59N 56°05' W 003°07'0 0.0
2017-Sep-19 21:29N 56°06' W 003°07'0 0.0
2017-Sep-19 20:59N 56°06' W 003°07'0 0.0
2017-Sep-19 20:29N 56°05' W 003°07'0 0.0
2017-Sep-19 19:59N 56°05' W 003°07'0 0.0
2017-Sep-19 19:29N 56°05' W 003°07'0 0.0
2017-Sep-19 18:59N 56°05' W 003°07'0 0.0
2017-Sep-19 18:29N 56°05' W 003°07'0 0.0
2017-Sep-19 17:59N 56°05' W 003°07'0 0.0
2017-Sep-19 17:29N 56°05' W 003°07'0 0.0
2017-Sep-19 16:59N 56°05' W 003°07'0 0.0
2017-Sep-19 16:29N 56°05' W 003°07'0 0.0
2017-Sep-19 15:59N 56°06' W 003°07'0 0.0
2017-Sep-19 15:29N 56°06' W 003°07'0 0.0
2017-Sep-19 14:59N 56°06' W 003°07'0 0.0
2017-Sep-19 14:29N 56°05' W 003°07'0 0.1
2017-Sep-19 13:59N 56°05' W 003°07'0 0.0
2017-Sep-19 13:29N 56°05' W 003°07'0 0.0
2017-Sep-19 12:59N 56°05' W 003°07'0 0.1
2017-Sep-19 12:29N 56°05' W 003°07'0 0.1
2017-Sep-19 11:59N 56°05' W 003°07'0 0.2
2017-Sep-19 11:29N 56°05' W 003°07'0 0.1
2017-Sep-19 10:59N 56°05' W 003°07'0 0.1
2017-Sep-19 10:29N 56°05' W 003°07'0 0.1
2017-Sep-19 09:59N 56°05' W 003°07'0 0.1
2017-Sep-19 09:29N 56°05' W 003°07'0 0.1
2017-Sep-19 08:59N 56°05' W 003°07'0 0.0
2017-Sep-19 08:29N 56°05' W 003°07'0 0.1
2017-Sep-19 07:59N 56°05' W 003°07'0 0.0
2017-Sep-19 07:29N 56°05' W 003°07'0 0.0
2017-Sep-19 06:59N 56°05' W 003°07'0 0.0
2017-Sep-19 06:29N 56°05' W 003°07'0 0.0
2017-Sep-19 05:59N 56°05' W 003°07'0 0.0
2017-Sep-19 05:29N 56°05' W 003°07'0 0.0
2017-Sep-19 04:59N 56°05' W 003°07'0 0.0
2017-Sep-19 04:29N 56°05' W 003°07'0 0.0
2017-Sep-19 03:59N 56°05' W 003°07'0 0.1
2017-Sep-19 03:29N 56°05' W 003°07'0 0.0
2017-Sep-19 02:59N 56°05' W 003°07'0 0.0
2017-Sep-19 02:29N 56°05' W 003°07'0 0.0
2017-Sep-19 01:59N 56°05' W 003°07'0 0.1
2017-Sep-19 01:29N 56°05' W 003°07'0 0.2
2017-Sep-19 00:59N 56°05' W 003°07'0 0.1
2017-Sep-19 00:29N 56°05' W 003°07'0 0.0
2017-Sep-18 23:59N 56°05' W 003°07'0 0.0
2017-Sep-18 23:29N 56°05' W 003°07'0 0.1
2017-Sep-18 22:59N 56°05' W 003°07'0 0.0
2017-Sep-18 22:29N 56°05' W 003°07'0 0.0
2017-Sep-18 21:59N 56°05' W 003°07'0 0.0
2017-Sep-18 21:29N 56°05' W 003°07'0 0.1
2017-Sep-18 20:59N 56°05' W 003°07'0 0.1
2017-Sep-18 20:29N 56°05' W 003°07'0 0.0
2017-Sep-18 19:59N 56°05' W 003°07'0 0.0
2017-Sep-18 19:29N 56°05' W 003°07'0 0.1
2017-Sep-18 18:59N 56°05' W 003°07'0 0.1
2017-Sep-18 18:29N 56°05' W 003°07'0 0.0
2017-Sep-18 17:59N 56°05' W 003°07'0 0.0
2017-Sep-18 17:29N 56°05' W 003°07'0 0.0
2017-Sep-18 16:59N 56°05' W 003°07'0 0.0
2017-Sep-18 16:29N 56°05' W 003°07'0 0.0
2017-Sep-18 15:59N 56°05' W 003°07'0 0.0
2017-Sep-18 15:29N 56°05' W 003°07'0 0.0
2017-Sep-18 14:59N 56°05' W 003°07'0 0.0
2017-Sep-18 14:29N 56°05' W 003°07'0 0.0
2017-Sep-18 13:59N 56°05' W 003°07'0 0.2
2017-Sep-18 13:29N 56°05' W 003°07'0 0.1
2017-Sep-18 12:59N 56°05' W 003°07'0 0.0
2017-Sep-18 12:29N 56°05' W 003°07'0 0.0
2017-Sep-18 11:59N 56°05' W 003°07'0 0.0
2017-Sep-18 11:29N 56°05' W 003°07'0 0.0
2017-Sep-18 10:59N 56°05' W 003°07'0 0.0
2017-Sep-18 10:29N 56°05' W 003°07'0 0.0
2017-Sep-18 09:59N 56°05' W 003°07'0 0.1
2017-Sep-18 09:29N 56°05' W 003°07'0 0.0
2017-Sep-18 08:59N 56°05' W 003°07'0 0.0
2017-Sep-18 08:29N 56°05' W 003°07'0 0.0
2017-Sep-18 07:59N 56°05' W 003°07'0 0.0
2017-Sep-18 07:29N 56°05' W 003°07'0 0.1
2017-Sep-18 06:59N 56°05' W 003°07'0 0.1
2017-Sep-18 06:29N 56°05' W 003°07'0 0.0
2017-Sep-18 05:59N 56°05' W 003°07'0 0.0
2017-Sep-18 05:29N 56°05' W 003°07'0 0.0
2017-Sep-18 04:59N 56°05' W 003°07'0 0.0
2017-Sep-18 04:29N 56°05' W 003°07'0 0.0
2017-Sep-18 03:59N 56°05' W 003°07'0 0.0
2017-Sep-18 03:29N 56°05' W 003°07'0 0.0
2017-Sep-18 02:59N 56°05' W 003°07'0 0.1
2017-Sep-18 02:29N 56°05' W 003°07'0 0.1
2017-Sep-18 01:59N 56°05' W 003°07'0 0.2
2017-Sep-18 01:29N 56°05' W 003°07'0 0.0
2017-Sep-18 00:59N 56°05' W 003°07'0 0.0
2017-Sep-18 00:29N 56°05' W 003°07'0 0.0
2017-Sep-17 23:59N 56°05' W 003°07'0 0.0
2017-Sep-17 23:29N 56°05' W 003°07'0 0.0
2017-Sep-17 22:59N 56°05' W 003°07'0 0.0
2017-Sep-17 22:29N 56°05' W 003°07'0 0.0
2017-Sep-17 21:59N 56°05' W 003°07'0 0.0
2017-Sep-17 21:29N 56°05' W 003°07'0 0.0
2017-Sep-17 20:59N 56°05' W 003°07'0 0.0
2017-Sep-17 20:29N 56°05' W 003°07'0 0.0
2017-Sep-17 19:59N 56°05' W 003°07'0 0.0
2017-Sep-17 19:29N 56°05' W 003°07'0 0.0
2017-Sep-17 18:59N 56°05' W 003°07'0 0.0
2017-Sep-17 18:29N 56°05' W 003°07'0 0.0
2017-Sep-17 17:59N 56°05' W 003°07'0 0.0
2017-Sep-17 17:29N 56°05' W 003°07'0 0.0
2017-Sep-17 16:59N 56°05' W 003°07'0 0.1
2017-Sep-17 16:29N 56°05' W 003°07'0 0.1
2017-Sep-17 15:59N 56°05' W 003°07'0 0.0
2017-Sep-17 15:29N 56°05' W 003°07'0 0.0
2017-Sep-17 14:59N 56°05' W 003°07'0 0.0
2017-Sep-17 14:29N 56°05' W 003°07'0 0.0
2017-Sep-17 13:59N 56°05' W 003°07'0 0.0
2017-Sep-17 13:29N 56°05' W 003°07'0 0.0
2017-Sep-17 12:59N 56°05' W 003°07'0 0.1
2017-Sep-17 12:29N 56°05' W 003°07'0 0.0
2017-Sep-17 11:59N 56°05' W 003°07'0 0.0
2017-Sep-17 11:29N 56°05' W 003°07'0 0.0
2017-Sep-17 10:59N 56°05' W 003°07'0 0.0
2017-Sep-17 10:29N 56°05' W 003°07'0 0.0
2017-Sep-17 09:59N 56°05' W 003°07'0 0.0
2017-Sep-17 09:29N 56°05' W 003°07'0 0.0
2017-Sep-17 08:59N 56°05' W 003°07'0 0.0
2017-Sep-17 08:29N 56°05' W 003°07'0 0.3
2017-Sep-17 08:00N 56°05' W 003°07'4 8.3
2017-Sep-17 07:30N 56°06' W 002°60'713.6
2017-Sep-17 07:00N 56°07' W 002°47'713.1
2017-Sep-17 06:30N 56°08' W 002°36'613.0
2017-Sep-17 06:00N 56°07' W 002°24'713.0
2017-Sep-17 05:30N 56°06' W 002°13'713.1
2017-Sep-17 05:00N 56°04' W 002°02'713.1
2017-Sep-17 04:30N 56°02' W 001°50'612.8
2017-Sep-17 04:00N 55°60' W 001°39'912.7
2017-Sep-17 03:17N 55°55' W 001°25'  

Dump ship's entire track history